sensor_id;sensor_type;location;lat;lon;timestamp;P1;durP1;ratioP1;P2;durP2;ratioP2
69716;SDS011;67420;46.144;19.666;2024-01-11T00:02:55;15.50;;;13.10;;
69716;SDS011;67420;46.144;19.666;2024-01-11T00:12:58;13.15;;;11.70;;
69716;SDS011;67420;46.144;19.666;2024-01-11T01:19:40;13.38;;;10.45;;
69716;SDS011;67420;46.144;19.666;2024-01-11T01:29:42;12.23;;;10.52;;
69716;SDS011;67420;46.144;19.666;2024-01-11T01:39:44;14.13;;;11.20;;
69716;SDS011;67420;46.144;19.666;2024-01-11T01:49:48;11.60;;;10.35;;
69716;SDS011;67420;46.144;19.666;2024-01-11T01:59:51;12.52;;;10.65;;
69716;SDS011;67420;46.144;19.666;2024-01-11T02:09:54;11.98;;;10.07;;
69716;SDS011;67420;46.144;19.666;2024-01-11T03:27:13;13.55;;;10.00;;
69716;SDS011;67420;46.144;19.666;2024-01-11T03:37:15;11.05;;;9.35;;
69716;SDS011;67420;46.144;19.666;2024-01-11T03:47:18;11.15;;;9.80;;
69716;SDS011;67420;46.144;19.666;2024-01-11T03:57:20;11.82;;;9.23;;
69716;SDS011;67420;46.144;19.666;2024-01-11T04:07:22;13.27;;;10.80;;
69716;SDS011;67420;46.144;19.666;2024-01-11T04:17:24;13.52;;;11.43;;
69716;SDS011;67420;46.144;19.666;2024-01-11T04:27:26;13.70;;;10.57;;
69716;SDS011;67420;46.144;19.666;2024-01-11T04:37:29;13.57;;;11.35;;
69716;SDS011;67420;46.144;19.666;2024-01-11T04:47:31;17.50;;;12.63;;
69716;SDS011;67420;46.144;19.666;2024-01-11T04:57:34;16.13;;;12.95;;
69716;SDS011;67420;46.144;19.666;2024-01-11T05:07:36;18.38;;;13.82;;
69716;SDS011;67420;46.144;19.666;2024-01-11T05:17:38;17.27;;;14.10;;
69716;SDS011;67420;46.144;19.666;2024-01-11T05:27:40;17.98;;;13.82;;
69716;SDS011;67420;46.144;19.666;2024-01-11T05:37:43;20.90;;;15.45;;
69716;SDS011;67420;46.144;19.666;2024-01-11T05:47:44;19.70;;;14.80;;
69716;SDS011;67420;46.144;19.666;2024-01-11T05:57:47;21.33;;;16.38;;
69716;SDS011;67420;46.144;19.666;2024-01-11T06:07:50;24.67;;;20.25;;
69716;SDS011;67420;46.144;19.666;2024-01-11T06:17:52;25.05;;;19.15;;
69716;SDS011;67420;46.144;19.666;2024-01-11T06:27:54;23.48;;;19.15;;
69716;SDS011;67420;46.144;19.666;2024-01-11T06:37:57;22.52;;;17.75;;
69716;SDS011;67420;46.144;19.666;2024-01-11T06:47:59;21.20;;;17.25;;
69716;SDS011;67420;46.144;19.666;2024-01-11T06:58:02;22.30;;;18.25;;
69716;SDS011;67420;46.144;19.666;2024-01-11T07:08:04;20.90;;;17.30;;
69716;SDS011;67420;46.144;19.666;2024-01-11T07:18:07;19.55;;;16.60;;
69716;SDS011;67420;46.144;19.666;2024-01-11T07:28:09;20.10;;;16.38;;
69716;SDS011;67420;46.144;19.666;2024-01-11T07:38:12;20.13;;;15.43;;
69716;SDS011;67420;46.144;19.666;2024-01-11T08:33:44;18.13;;;14.50;;
69716;SDS011;67420;46.144;19.666;2024-01-11T08:43:47;19.73;;;14.80;;
69716;SDS011;67420;46.144;19.666;2024-01-11T08:53:49;20.20;;;15.95;;
69716;SDS011;67420;46.144;19.666;2024-01-11T09:03:51;17.95;;;14.30;;
69716;SDS011;67420;46.144;19.666;2024-01-11T09:13:54;19.50;;;14.43;;
69716;SDS011;67420;46.144;19.666;2024-01-11T09:23:56;17.05;;;13.65;;
69716;SDS011;67420;46.144;19.666;2024-01-11T09:33:58;14.65;;;12.32;;
69716;SDS011;67420;46.144;19.666;2024-01-11T09:44:00;12.75;;;11.35;;
69716;SDS011;67420;46.144;19.666;2024-01-11T09:54:06;13.02;;;11.60;;
69716;SDS011;67420;46.144;19.666;2024-01-11T10:04:11;13.95;;;11.52;;
69716;SDS011;67420;46.144;19.666;2024-01-11T10:14:15;12.45;;;10.70;;
69716;SDS011;67420;46.144;19.666;2024-01-11T10:24:18;11.43;;;9.73;;
69716;SDS011;67420;46.144;19.666;2024-01-11T10:34:25;11.80;;;9.23;;
69716;SDS011;67420;46.144;19.666;2024-01-11T10:44:27;12.38;;;9.93;;
69716;SDS011;67420;46.144;19.666;2024-01-11T10:54:34;11.43;;;9.35;;
69716;SDS011;67420;46.144;19.666;2024-01-11T11:04:38;10.98;;;8.35;;
69716;SDS011;67420;46.144;19.666;2024-01-11T11:14:41;11.95;;;8.35;;
69716;SDS011;67420;46.144;19.666;2024-01-11T11:24:46;9.77;;;7.90;;
69716;SDS011;67420;46.144;19.666;2024-01-11T11:34:48;9.23;;;7.47;;
69716;SDS011;67420;46.144;19.666;2024-01-11T11:44:54;9.05;;;7.18;;
69716;SDS011;67420;46.144;19.666;2024-01-11T11:54:56;8.00;;;6.90;;
69716;SDS011;67420;46.144;19.666;2024-01-11T12:04:59;8.38;;;6.60;;
69716;SDS011;67420;46.144;19.666;2024-01-11T12:15:03;7.68;;;6.40;;
69716;SDS011;67420;46.144;19.666;2024-01-11T12:25:06;7.18;;;6.30;;
69716;SDS011;67420;46.144;19.666;2024-01-11T12:35:09;7.43;;;5.65;;
69716;SDS011;67420;46.144;19.666;2024-01-11T12:45:12;7.28;;;6.03;;
69716;SDS011;67420;46.144;19.666;2024-01-11T12:55:19;7.40;;;5.60;;
69716;SDS011;67420;46.144;19.666;2024-01-11T13:05:21;7.03;;;5.45;;
69716;SDS011;67420;46.144;19.666;2024-01-11T13:15:24;6.85;;;5.72;;
69716;SDS011;67420;46.144;19.666;2024-01-11T13:25:26;6.78;;;5.82;;
69716;SDS011;67420;46.144;19.666;2024-01-11T13:35:28;5.88;;;5.20;;
69716;SDS011;67420;46.144;19.666;2024-01-11T13:45:31;6.95;;;5.40;;
69716;SDS011;67420;46.144;19.666;2024-01-11T13:55:33;7.25;;;6.15;;
69716;SDS011;67420;46.144;19.666;2024-01-11T14:05:42;8.40;;;6.67;;
69716;SDS011;67420;46.144;19.666;2024-01-11T14:15:44;7.97;;;6.18;;
69716;SDS011;67420;46.144;19.666;2024-01-11T14:25:49;6.95;;;6.18;;
69716;SDS011;67420;46.144;19.666;2024-01-11T14:35:52;8.05;;;5.50;;
69716;SDS011;67420;46.144;19.666;2024-01-11T14:45:55;7.90;;;5.53;;
69716;SDS011;67420;46.144;19.666;2024-01-11T14:55:57;7.03;;;5.78;;
69716;SDS011;67420;46.144;19.666;2024-01-11T15:05:59;7.90;;;6.60;;
69716;SDS011;67420;46.144;19.666;2024-01-11T15:16:01;8.18;;;6.75;;
69716;SDS011;67420;46.144;19.666;2024-01-11T15:26:04;7.93;;;6.43;;
69716;SDS011;67420;46.144;19.666;2024-01-11T15:36:06;8.82;;;7.25;;
69716;SDS011;67420;46.144;19.666;2024-01-11T15:46:09;10.02;;;7.40;;
69716;SDS011;67420;46.144;19.666;2024-01-11T15:56:12;8.32;;;6.95;;
69716;SDS011;67420;46.144;19.666;2024-01-11T16:06:14;9.57;;;7.65;;
69716;SDS011;67420;46.144;19.666;2024-01-11T16:16:16;9.20;;;7.47;;
69716;SDS011;67420;46.144;19.666;2024-01-11T16:26:18;9.80;;;8.45;;
69716;SDS011;67420;46.144;19.666;2024-01-11T16:36:21;9.70;;;8.02;;
69716;SDS011;67420;46.144;19.666;2024-01-11T16:46:23;10.52;;;8.38;;
69716;SDS011;67420;46.144;19.666;2024-01-11T16:56:27;10.68;;;8.73;;
69716;SDS011;67420;46.144;19.666;2024-01-11T17:06:29;12.55;;;9.00;;
69716;SDS011;67420;46.144;19.666;2024-01-11T17:16:32;10.63;;;8.65;;
69716;SDS011;67420;46.144;19.666;2024-01-11T17:26:34;12.40;;;8.98;;
69716;SDS011;67420;46.144;19.666;2024-01-11T17:36:38;11.00;;;9.10;;
69716;SDS011;67420;46.144;19.666;2024-01-11T17:46:40;11.93;;;9.73;;
69716;SDS011;67420;46.144;19.666;2024-01-11T17:56:44;11.93;;;9.98;;
69716;SDS011;67420;46.144;19.666;2024-01-11T18:06:47;14.73;;;10.32;;
69716;SDS011;67420;46.144;19.666;2024-01-11T18:16:51;13.38;;;10.60;;
69716;SDS011;67420;46.144;19.666;2024-01-11T18:26:53;12.73;;;10.93;;
69716;SDS011;67420;46.144;19.666;2024-01-11T18:36:57;12.18;;;10.23;;
69716;SDS011;67420;46.144;19.666;2024-01-11T18:46:59;13.65;;;11.15;;
69716;SDS011;67420;46.144;19.666;2024-01-11T18:57:00;15.65;;;11.60;;
69716;SDS011;67420;46.144;19.666;2024-01-11T19:07:03;13.38;;;10.88;;
69716;SDS011;67420;46.144;19.666;2024-01-11T19:17:06;15.18;;;10.50;;
69716;SDS011;67420;46.144;19.666;2024-01-11T19:27:08;15.98;;;11.65;;
69716;SDS011;67420;46.144;19.666;2024-01-11T19:37:10;14.45;;;11.43;;
69716;SDS011;67420;46.144;19.666;2024-01-11T19:47:18;14.88;;;10.73;;
69716;SDS011;67420;46.144;19.666;2024-01-11T19:57:22;13.63;;;10.85;;
69716;SDS011;67420;46.144;19.666;2024-01-11T20:07:25;15.15;;;10.80;;
69716;SDS011;67420;46.144;19.666;2024-01-11T20:17:28;14.05;;;11.18;;
69716;SDS011;67420;46.144;19.666;2024-01-11T20:27:30;13.15;;;10.63;;
69716;SDS011;67420;46.144;19.666;2024-01-11T20:37:33;13.52;;;11.10;;
69716;SDS011;67420;46.144;19.666;2024-01-11T20:47:36;13.73;;;11.07;;
69716;SDS011;67420;46.144;19.666;2024-01-11T20:57:39;13.00;;;11.13;;
69716;SDS011;67420;46.144;19.666;2024-01-11T21:07:41;16.20;;;12.45;;
69716;SDS011;67420;46.144;19.666;2024-01-11T21:17:43;16.55;;;11.73;;
69716;SDS011;67420;46.144;19.666;2024-01-11T21:27:46;15.90;;;12.38;;
69716;SDS011;67420;46.144;19.666;2024-01-11T21:37:48;13.98;;;10.90;;
69716;SDS011;67420;46.144;19.666;2024-01-11T21:47:51;15.95;;;12.20;;
69716;SDS011;67420;46.144;19.666;2024-01-11T21:57:53;14.98;;;12.10;;
69716;SDS011;67420;46.144;19.666;2024-01-11T22:07:56;14.30;;;11.88;;
69716;SDS011;67420;46.144;19.666;2024-01-11T22:17:58;15.98;;;12.27;;
69716;SDS011;67420;46.144;19.666;2024-01-11T22:28:00;14.15;;;11.95;;
69716;SDS011;67420;46.144;19.666;2024-01-11T22:38:02;14.15;;;12.00;;
69716;SDS011;67420;46.144;19.666;2024-01-11T22:48:05;14.02;;;12.07;;
69716;SDS011;67420;46.144;19.666;2024-01-11T22:58:07;15.38;;;12.63;;
69716;SDS011;67420;46.144;19.666;2024-01-11T23:08:09;15.07;;;12.38;;
69716;SDS011;67420;46.144;19.666;2024-01-11T23:18:12;16.20;;;12.60;;
69716;SDS011;67420;46.144;19.666;2024-01-11T23:28:14;17.52;;;13.10;;
69716;SDS011;67420;46.144;19.666;2024-01-11T23:38:16;14.45;;;11.82;;
69716;SDS011;67420;46.144;19.666;2024-01-11T23:48:18;14.98;;;12.30;;
69716;SDS011;67420;46.144;19.666;2024-01-11T23:58:20;14.50;;;12.02;;
